aviador You're here:

KLAF Decoded Metar

LAFAYETTE in IN, USA
Report Time2017-06-27 21:54:00
UTC Time2017-06-27 22:36:31
Flight Rules vfr VFR
Wind190° at 03 kt
W.Decomp.*RWY 23: 2.3 kt HW 1.9 kt LCW
RWY 28: 0.1 kt HW 3 kt LCW
W.Rank190° ranks 10
Current wind is below 190° avg. (6.8)
Visibility9999 m
Phenomena:N/A
Clouds:N/A
Expected CloudBase > 5,600 ft AGL from Temp-Dew spread
CeilingNone
Temp22°C (ISA +8)
Dew Point08°C (41% RH)
AAT20.5°C
QNH1019 hPa
Density Alt1,496 ft
Elevation597 ft
Report Wrong Elevation
Raw Report
KLAF 272154Z 19003KT 10SM CLR 22/08 A3009 RMK AO2 SLP188
T02220083=

Extra information for KLAF:More info

Metar Taf Metar & Taf Last 4 Metars F.Rules Stats Wind Profile Meteogram Temp Stats Airport Information Weather charts Add Link Nearby VenuesMetar ALERT Operation Metar Decoded Social comments

AIRNAV info for KLAF